createdAt,value
2022-12-24T00:01:04.291Z,21.58
2022-12-24T00:03:30.840Z,22.45
2022-12-24T00:05:57.382Z,21.95
2022-12-24T00:08:23.840Z,19.27
2022-12-24T00:10:53.601Z,17.67
2022-12-24T00:13:20.071Z,18.58
2022-12-24T00:15:46.562Z,27.98
2022-12-24T00:18:12.981Z,25.92
2022-12-24T00:20:39.437Z,27.65
2022-12-24T00:23:05.806Z,30.52
2022-12-24T00:25:32.233Z,26.65
2022-12-24T00:27:58.853Z,25.23
2022-12-24T00:30:25.256Z,26.70
2022-12-24T00:32:51.657Z,27.13
2022-12-24T00:35:18.020Z,33.28
2022-12-24T00:37:47.428Z,29.65
2022-12-24T00:40:13.989Z,24.38
2022-12-24T00:42:40.349Z,30.40
2022-12-24T00:45:07.161Z,34.20
2022-12-24T00:47:33.523Z,25.67
2022-12-24T00:49:59.919Z,24.95
2022-12-24T00:52:26.354Z,35.60
2022-12-24T00:54:52.757Z,26.30
2022-12-24T00:57:19.150Z,28.27
2022-12-24T00:59:45.516Z,32.72
2022-12-24T01:02:12.066Z,27.52
2022-12-24T01:04:57.205Z,27.55
2022-12-24T01:07:23.607Z,27.55
2022-12-24T01:09:49.959Z,31.58
2022-12-24T01:12:16.329Z,35.50
2022-12-24T01:14:42.712Z,24.38
2022-12-24T01:17:09.176Z,28.00
2022-12-24T01:19:35.562Z,23.73
2022-12-24T01:22:02.003Z,28.42
2022-12-24T01:24:28.371Z,27.35
2022-12-24T01:26:54.743Z,25.98
2022-12-24T01:29:21.128Z,22.05
2022-12-24T01:31:47.591Z,24.17
2022-12-24T01:34:13.982Z,31.77
2022-12-24T01:36:40.385Z,25.27
2022-12-24T01:39:06.732Z,26.67
2022-12-24T01:41:51.875Z,22.65
2022-12-24T01:44:33.459Z,27.98
2022-12-24T01:47:21.335Z,26.52
2022-12-24T01:50:09.567Z,23.55
2022-12-24T01:52:36.267Z,25.23
2022-12-24T01:55:07.270Z,30.75
2022-12-24T01:57:37.542Z,25.85
2022-12-24T02:00:07.869Z,28.70
2022-12-24T02:02:35.097Z,32.47
2022-12-24T02:05:19.269Z,33.58
2022-12-24T02:07:46.025Z,35.45
2022-12-24T02:10:13.269Z,16.95
2022-12-24T02:12:40.631Z,32.80
2022-12-24T02:15:09.813Z,23.92
2022-12-24T02:17:58.519Z,29.02
2022-12-24T02:20:40.054Z,35.25
2022-12-24T02:23:21.593Z,35.63
2022-12-24T02:26:07.984Z,28.67
2022-12-24T02:29:11.257Z,36.10
2022-12-24T02:31:52.340Z,23.98
2022-12-24T02:34:28.177Z,29.10
2022-12-24T02:37:07.241Z,32.20
2022-12-24T02:39:40.520Z,22.90
2022-12-24T02:42:08.345Z,25.95
2022-12-24T02:44:47.810Z,33.15
2022-12-24T02:47:15.356Z,31.67
2022-12-24T02:49:45.303Z,29.63
2022-12-24T02:52:31.595Z,33.38
2022-12-24T02:54:59.097Z,33.72
2022-12-24T02:57:43.890Z,32.55
2022-12-24T03:00:13.934Z,29.88
2022-12-24T03:03:07.568Z,38.40
2022-12-24T03:05:45.156Z,33.80
2022-12-24T03:08:16.987Z,31.20
2022-12-24T03:10:46.794Z,34.58
2022-12-24T03:13:15.631Z,36.30
2022-12-24T03:15:42.665Z,40.83
2022-12-24T03:18:11.010Z,30.45
2022-12-24T03:20:44.445Z,27.85
2022-12-24T03:23:11.068Z,34.67
2022-12-24T03:25:40.063Z,31.85
2022-12-24T03:28:06.921Z,35.35
2022-12-24T03:30:33.836Z,31.23
2022-12-24T03:33:00.339Z,29.38
2022-12-24T03:35:26.736Z,25.70
2022-12-24T03:37:53.162Z,36.92
2022-12-24T03:40:19.541Z,29.50
2022-12-24T03:42:45.973Z,31.50
2022-12-24T03:45:12.399Z,34.05
2022-12-24T03:47:38.807Z,33.22
2022-12-24T03:50:06.407Z,27.42
2022-12-24T03:52:32.878Z,28.40
2022-12-24T03:54:59.240Z,35.25
2022-12-24T03:57:25.666Z,50.03
2022-12-24T03:59:52.520Z,37.72
2022-12-24T04:02:19.046Z,35.53
2022-12-24T04:04:45.594Z,30.73
2022-12-24T04:07:12.097Z,34.25
2022-12-24T04:09:39.049Z,31.17
2022-12-24T04:12:05.596Z,35.40
2022-12-24T04:14:31.985Z,33.75
2022-12-24T04:16:58.368Z,30.95
2022-12-24T04:19:24.775Z,29.30
2022-12-24T04:21:51.189Z,30.58
2022-12-24T04:24:17.603Z,42.53
2022-12-24T04:26:44.018Z,29.85
2022-12-24T04:29:10.508Z,35.83
2022-12-24T04:31:37.369Z,35.88
2022-12-24T04:34:03.863Z,32.35
2022-12-24T04:36:31.426Z,38.97
2022-12-24T04:38:57.813Z,29.00
2022-12-24T04:41:25.555Z,36.70
2022-12-24T04:43:53.298Z,33.33
2022-12-24T04:46:22.521Z,27.60
2022-12-24T04:48:50.527Z,31.27
2022-12-24T04:51:17.875Z,34.33
2022-12-24T04:53:44.886Z,33.80
2022-12-24T04:56:16.375Z,30.88
2022-12-24T04:58:42.770Z,28.77
2022-12-24T05:01:13.454Z,26.80
2022-12-24T05:03:40.123Z,36.03
2022-12-24T05:06:09.135Z,37.00
2022-12-24T05:08:35.565Z,32.15
2022-12-24T05:11:02.525Z,31.02
2022-12-24T05:13:37.601Z,29.23
2022-12-24T05:16:09.309Z,36.83
2022-12-24T05:18:35.823Z,30.83
2022-12-24T05:21:02.811Z,29.08
2022-12-24T05:23:47.818Z,34.08
2022-12-24T05:26:23.277Z,25.92
2022-12-24T05:28:51.347Z,27.08
2022-12-24T05:31:18.441Z,26.73
2022-12-24T05:33:45.538Z,20.70
2022-12-24T05:36:11.996Z,21.65
2022-12-24T05:38:38.446Z,22.17
2022-12-24T05:41:05.427Z,20.88
2022-12-24T05:43:32.145Z,25.83
2022-12-24T05:46:03.617Z,21.67
2022-12-24T05:48:30.040Z,23.15
2022-12-24T05:50:56.565Z,27.70
2022-12-24T05:53:22.979Z,23.70
2022-12-24T05:55:49.488Z,23.38
2022-12-24T05:58:15.994Z,22.90
2022-12-24T06:00:42.837Z,27.55
2022-12-24T06:03:09.241Z,29.88
2022-12-24T06:05:35.677Z,18.58
2022-12-24T06:08:02.047Z,23.75
2022-12-24T06:10:28.417Z,27.70
2022-12-24T06:12:55.787Z,41.35
2022-12-24T06:15:24.117Z,26.63
2022-12-24T06:17:50.781Z,27.45
2022-12-24T06:20:17.186Z,19.20
2022-12-24T06:22:43.567Z,34.17
2022-12-24T06:25:09.949Z,33.92
2022-12-24T06:27:36.312Z,21.15
2022-12-24T06:30:02.709Z,18.90
2022-12-24T06:32:29.099Z,26.95
2022-12-24T06:34:55.501Z,29.33
2022-12-24T06:37:21.866Z,33.97
2022-12-24T06:39:48.260Z,36.53
2022-12-24T06:42:14.680Z,30.08
2022-12-24T06:44:41.053Z,27.23
2022-12-24T06:47:07.427Z,31.00
2022-12-24T06:49:33.804Z,31.70
2022-12-24T06:52:00.197Z,31.75
2022-12-24T06:54:27.248Z,29.55
2022-12-24T06:56:53.611Z,30.38
2022-12-24T06:59:20.057Z,28.10
2022-12-24T07:01:46.535Z,29.73
2022-12-24T07:04:19.681Z,29.05
2022-12-24T07:06:47.296Z,28.30
2022-12-24T07:09:14.289Z,28.88
2022-12-24T07:11:40.764Z,32.13
2022-12-24T07:14:07.240Z,34.10
2022-12-24T07:16:33.775Z,26.00
2022-12-24T07:19:00.183Z,29.38
2022-12-24T07:21:26.554Z,27.58
2022-12-24T07:23:52.917Z,30.25
2022-12-24T07:26:19.359Z,26.50
2022-12-24T07:28:45.761Z,32.70
2022-12-24T07:31:12.254Z,26.73
2022-12-24T07:33:38.774Z,34.80
2022-12-24T07:36:08.293Z,32.47
2022-12-24T07:38:34.890Z,27.23
2022-12-24T07:41:01.686Z,24.77
2022-12-24T07:43:28.654Z,25.05
2022-12-24T07:45:58.491Z,27.27
2022-12-24T07:48:26.299Z,22.17
2022-12-24T07:50:52.829Z,22.67
2022-12-24T07:53:19.508Z,27.20
2022-12-24T07:55:46.203Z,28.45
2022-12-24T07:58:12.637Z,17.40
2022-12-24T08:00:39.009Z,26.25
2022-12-24T08:03:05.522Z,24.42
2022-12-24T08:05:38.099Z,30.23
2022-12-24T08:08:04.518Z,22.52
2022-12-24T08:10:30.958Z,28.52
2022-12-24T08:12:57.583Z,25.45
2022-12-24T08:15:24.028Z,31.90
2022-12-24T08:17:50.467Z,36.33
2022-12-24T08:20:17.294Z,28.30
2022-12-24T08:22:43.697Z,26.83
2022-12-24T08:25:10.410Z,29.75
2022-12-24T08:27:36.788Z,26.23
2022-12-24T08:30:04.612Z,26.50
2022-12-24T08:32:31.018Z,22.88
2022-12-24T08:34:57.384Z,28.70
2022-12-24T08:37:23.767Z,26.63
2022-12-24T08:39:50.151Z,25.60
2022-12-24T08:42:16.628Z,32.80
2022-12-24T08:44:43.028Z,30.38
2022-12-24T08:47:09.422Z,27.38
2022-12-24T08:49:35.831Z,19.27
2022-12-24T08:52:02.221Z,26.83
2022-12-24T08:54:28.609Z,32.33
2022-12-24T08:56:54.998Z,39.65
2022-12-24T08:59:21.375Z,24.20
2022-12-24T09:01:47.912Z,33.17
2022-12-24T09:04:14.601Z,32.85
2022-12-24T09:06:41.075Z,30.55
2022-12-24T09:09:07.531Z,35.03
2022-12-24T09:11:35.020Z,25.20
2022-12-24T09:14:01.587Z,39.17
2022-12-24T09:16:28.127Z,27.65
2022-12-24T09:18:54.547Z,33.42
2022-12-24T09:21:21.088Z,19.25
2022-12-24T09:23:48.308Z,28.05
2022-12-24T09:26:18.936Z,21.95
2022-12-24T09:28:45.580Z,26.33
2022-12-24T09:31:12.630Z,23.20
2022-12-24T09:33:40.983Z,27.38
2022-12-24T09:36:07.851Z,29.67
2022-12-24T09:38:34.742Z,29.25
2022-12-24T09:41:07.134Z,33.63
2022-12-24T09:43:36.439Z,27.10
2022-12-24T09:46:27.806Z,32.65
2022-12-24T09:48:57.237Z,34.30
2022-12-24T09:51:31.964Z,29.77
2022-12-24T09:54:04.437Z,29.80
2022-12-24T09:56:34.114Z,24.33
2022-12-24T09:59:02.771Z,29.48
2022-12-24T10:01:31.298Z,36.20
2022-12-24T10:04:02.009Z,25.65
2022-12-24T10:06:35.128Z,29.15
2022-12-24T10:09:10.573Z,38.22
2022-12-24T10:11:59.883Z,34.90
2022-12-24T10:14:32.393Z,34.53
2022-12-24T10:16:58.857Z,29.00
2022-12-24T10:19:47.102Z,31.67
2022-12-24T10:22:25.409Z,32.35
2022-12-24T10:24:54.766Z,28.73
2022-12-24T10:27:25.081Z,30.23
2022-12-24T10:29:56.251Z,27.63
2022-12-24T10:32:29.072Z,31.80
2022-12-24T10:35:00.287Z,28.13
2022-12-24T10:37:28.819Z,22.85
2022-12-24T10:39:57.270Z,26.60
2022-12-24T10:42:26.402Z,29.38
2022-12-24T10:44:57.867Z,23.38
2022-12-24T10:47:24.660Z,33.00
2022-12-24T10:49:58.245Z,34.30
2022-12-24T10:52:28.930Z,26.77
2022-12-24T10:55:09.315Z,28.00
2022-12-24T10:57:35.749Z,28.50
2022-12-24T11:00:03.007Z,25.70
2022-12-24T11:02:36.427Z,25.45
2022-12-24T11:05:06.103Z,32.72
2022-12-24T11:07:34.071Z,29.88
2022-12-24T11:10:06.843Z,30.05
2022-12-24T11:12:40.381Z,26.77
2022-12-24T11:15:26.852Z,35.03
2022-12-24T11:18:05.823Z,25.55
2022-12-24T11:20:35.677Z,23.83
2022-12-24T11:23:02.445Z,30.70
2022-12-24T11:25:31.693Z,33.92
2022-12-24T11:28:12.434Z,33.05
2022-12-24T11:30:39.030Z,28.88
2022-12-24T11:33:08.322Z,24.30
2022-12-24T11:35:40.584Z,31.33
2022-12-24T11:38:06.884Z,23.77
2022-12-24T11:40:36.251Z,30.00
2022-12-24T11:43:07.239Z,23.65
2022-12-24T11:45:37.385Z,27.90
2022-12-24T11:48:30.838Z,32.05
2022-12-24T11:51:02.285Z,28.95
2022-12-24T11:53:37.650Z,23.60
2022-12-24T11:56:15.228Z,25.50
2022-12-24T11:58:43.904Z,27.77
2022-12-24T12:01:24.823Z,26.73
2022-12-24T12:04:25.728Z,29.50
2022-12-24T12:06:55.835Z,31.55
2022-12-24T12:09:26.548Z,27.17
2022-12-24T12:12:00.703Z,30.52
2022-12-24T12:15:22.633Z,25.48
2022-12-24T12:17:56.186Z,25.80
2022-12-24T12:20:30.563Z,24.40
2022-12-24T12:23:03.099Z,32.13
2022-12-24T12:26:08.104Z,30.13
2022-12-24T12:28:46.077Z,34.55
2022-12-24T12:31:17.061Z,36.33
2022-12-24T12:33:48.804Z,31.50
2022-12-24T12:36:19.408Z,32.85
2022-12-24T12:38:45.841Z,30.45
2022-12-24T12:41:44.858Z,23.08
2022-12-24T12:44:26.120Z,23.60
2022-12-24T12:47:24.439Z,29.80
2022-12-24T12:50:03.856Z,23.25
2022-12-24T12:52:55.079Z,26.00
2022-12-24T12:55:57.927Z,35.35
2022-12-24T12:58:42.620Z,23.83
2022-12-24T13:01:16.165Z,33.03
2022-12-24T13:04:00.983Z,34.92
2022-12-24T13:07:05.842Z,29.25
2022-12-24T13:09:50.402Z,27.88
2022-12-24T13:12:25.173Z,23.30
2022-12-24T13:14:57.668Z,22.70
2022-12-24T13:17:33.095Z,32.05
2022-12-24T13:20:09.376Z,33.88
2022-12-24T13:22:35.995Z,29.67
2022-12-24T13:25:02.484Z,25.58
2022-12-24T13:27:33.899Z,23.27
2022-12-24T13:30:09.723Z,20.10
2022-12-24T13:32:38.428Z,22.08
2022-12-24T13:35:25.121Z,21.30
2022-12-24T13:37:51.840Z,29.83
2022-12-24T13:40:25.971Z,18.17
2022-12-24T13:42:58.453Z,30.02
2022-12-24T13:45:33.940Z,23.10
2022-12-24T13:48:17.984Z,26.67
2022-12-24T13:50:55.752Z,20.80
2022-12-24T13:53:34.189Z,26.58
2022-12-24T13:56:12.678Z,28.25
2022-12-24T13:58:42.135Z,20.55
2022-12-24T14:01:11.452Z,24.92
2022-12-24T14:03:55.883Z,25.00
2022-12-24T14:06:31.312Z,22.15
2022-12-24T14:09:25.194Z,20.17
2022-12-24T14:12:03.776Z,24.70
2022-12-24T14:14:40.208Z,28.75
2022-12-24T14:17:21.532Z,24.85
2022-12-24T14:19:50.910Z,25.98
2022-12-24T14:22:26.284Z,20.98
2022-12-24T14:24:55.636Z,23.95
2022-12-24T14:27:27.393Z,21.75
2022-12-24T14:30:05.967Z,21.02
2022-12-24T14:32:37.451Z,24.55
2022-12-24T14:35:19.106Z,28.73
2022-12-24T14:37:48.078Z,26.88
2022-12-24T14:40:17.193Z,23.85
2022-12-24T14:43:14.291Z,23.00
2022-12-24T14:45:51.955Z,25.80
2022-12-24T14:48:29.518Z,25.88
2022-12-24T14:51:14.829Z,29.65
2022-12-24T14:54:02.769Z,28.30
2022-12-24T14:56:29.163Z,31.70
2022-12-24T14:58:56.627Z,25.48
2022-12-24T15:01:27.933Z,58.72
2022-12-24T15:04:05.869Z,41.63
2022-12-24T15:06:34.124Z,30.45
2022-12-24T15:09:00.778Z,128.00
2022-12-24T15:11:27.182Z,105.25
2022-12-24T15:13:58.306Z,64.57
2022-12-24T15:16:37.003Z,64.07
2022-12-24T15:19:15.887Z,80.05
2022-12-24T15:21:42.549Z,111.07
2022-12-24T15:24:32.157Z,35.00
2022-12-24T15:26:59.332Z,80.47
2022-12-24T15:29:28.218Z,58.97
2022-12-24T15:31:59.454Z,72.70
2022-12-24T15:34:27.073Z,44.70
2022-12-24T15:37:01.307Z,44.22
2022-12-24T15:39:27.730Z,40.85
2022-12-24T15:42:12.796Z,33.20
2022-12-24T15:44:41.727Z,36.15
2022-12-24T15:47:15.301Z,36.10
2022-12-24T15:49:44.628Z,37.38
2022-12-24T15:52:13.297Z,46.38
2022-12-24T15:54:44.950Z,35.95
2022-12-24T15:57:26.706Z,29.90
2022-12-24T15:59:54.980Z,31.08
2022-12-24T16:02:33.770Z,37.28
2022-12-24T16:05:21.683Z,31.10
2022-12-24T16:08:13.362Z,37.63
2022-12-24T16:10:46.594Z,35.87
2022-12-24T16:13:22.667Z,43.45
2022-12-24T16:15:55.151Z,35.17
2022-12-24T16:18:36.496Z,55.15
2022-12-24T16:21:03.877Z,45.50
2022-12-24T16:23:44.863Z,48.35
2022-12-24T16:26:11.220Z,65.13
2022-12-24T16:28:37.605Z,66.55
2022-12-24T16:31:04.246Z,89.78
2022-12-24T16:33:30.783Z,45.92
2022-12-24T16:35:57.413Z,47.53
2022-12-24T16:38:23.922Z,62.30
2022-12-24T16:40:50.305Z,62.60
2022-12-24T16:43:35.276Z,60.58
2022-12-24T16:46:04.063Z,98.05
2022-12-24T16:48:30.950Z,64.85
2022-12-24T16:50:57.392Z,52.95
2022-12-24T16:53:23.805Z,54.65
2022-12-24T16:55:51.732Z,51.88
2022-12-24T16:58:19.582Z,46.88
2022-12-24T17:00:46.495Z,36.90
2022-12-24T17:03:13.288Z,58.33
2022-12-24T17:05:43.832Z,55.17
2022-12-24T17:08:10.556Z,73.07
2022-12-24T17:10:36.958Z,73.05
2022-12-24T17:13:03.845Z,67.50
2022-12-24T17:15:30.448Z,57.20
2022-12-24T17:17:56.850Z,55.30
2022-12-24T17:20:24.422Z,44.50
2022-12-24T17:22:51.193Z,49.30
2022-12-24T17:25:17.639Z,50.92
2022-12-24T17:27:44.079Z,60.03
2022-12-24T17:30:10.675Z,59.50
2022-12-24T17:32:37.376Z,61.75
2022-12-24T17:35:04.033Z,63.70
2022-12-24T17:37:30.440Z,56.25
2022-12-24T17:39:56.961Z,54.90
2022-12-24T17:42:23.383Z,43.15
2022-12-24T17:44:49.747Z,39.53
2022-12-24T17:47:16.110Z,31.30
2022-12-24T17:49:42.519Z,31.40
2022-12-24T17:52:08.932Z,35.53
2022-12-24T17:54:35.316Z,30.52
2022-12-24T17:57:01.794Z,28.40
2022-12-24T17:59:28.597Z,34.83
2022-12-24T18:01:55.044Z,28.00
2022-12-24T18:04:21.529Z,32.70
2022-12-24T18:06:49.789Z,34.53
2022-12-24T18:09:16.808Z,31.17
2022-12-24T18:11:43.212Z,24.23
2022-12-24T18:14:12.067Z,30.75
2022-12-24T18:16:40.129Z,25.63
2022-12-24T18:19:10.141Z,19.45
2022-12-24T18:21:36.533Z,90.50
2022-12-24T18:24:03.054Z,150.55
2022-12-24T18:26:30.530Z,90.82
2022-12-24T18:28:58.476Z,87.90
2022-12-24T18:31:26.643Z,69.30
2022-12-24T18:33:54.870Z,46.88
2022-12-24T18:36:21.834Z,44.33
2022-12-24T18:38:48.538Z,69.40
2022-12-24T18:41:17.614Z,43.55
2022-12-24T18:43:44.007Z,59.22
2022-12-24T18:46:15.355Z,38.63
2022-12-24T18:48:41.975Z,44.63
2022-12-24T18:51:09.838Z,71.15
2022-12-24T18:53:36.724Z,40.33
2022-12-24T18:56:26.558Z,37.55
2022-12-24T18:58:54.807Z,43.25
2022-12-24T19:01:26.517Z,25.60
2022-12-24T19:03:52.977Z,47.95
2022-12-24T19:06:22.047Z,43.65
2022-12-24T19:08:57.615Z,51.58
2022-12-24T19:11:26.193Z,48.38
2022-12-24T19:13:55.537Z,45.35
2022-12-24T19:16:22.459Z,53.92
2022-12-24T19:18:49.391Z,59.03
2022-12-24T19:21:17.180Z,60.80
2022-12-24T19:23:44.375Z,70.80
2022-12-24T19:26:11.459Z,52.33
2022-12-24T19:28:39.489Z,48.40
2022-12-24T19:31:11.256Z,59.45
2022-12-24T19:33:44.273Z,57.75
2022-12-24T19:36:16.410Z,54.13
2022-12-24T19:38:43.163Z,72.53
2022-12-24T19:41:12.519Z,114.07
2022-12-24T19:43:44.462Z,96.38
2022-12-24T19:46:14.174Z,160.48
2022-12-24T19:48:41.656Z,89.60
2022-12-24T19:51:10.378Z,49.38
2022-12-24T19:53:37.677Z,52.92
2022-12-24T19:56:05.083Z,56.20
2022-12-24T19:58:34.396Z,50.55
2022-12-24T20:01:18.610Z,54.40
2022-12-24T20:03:45.803Z,52.80
2022-12-24T20:06:13.583Z,40.30
2022-12-24T20:08:40.458Z,69.85
2022-12-24T20:11:08.778Z,66.80
2022-12-24T20:13:36.940Z,79.88
2022-12-24T20:16:22.631Z,157.48
2022-12-24T20:19:08.212Z,94.32
2022-12-24T20:21:35.139Z,83.68
2022-12-24T20:24:01.765Z,94.50
2022-12-24T20:26:28.855Z,66.25
2022-12-24T20:28:55.240Z,51.55
2022-12-24T20:31:24.671Z,53.08
2022-12-24T20:33:51.222Z,64.82
2022-12-24T20:36:18.777Z,59.00
2022-12-24T20:38:45.910Z,38.65
2022-12-24T20:41:14.095Z,60.83
2022-12-24T20:43:47.859Z,70.88
2022-12-24T20:46:15.383Z,62.03
2022-12-24T20:48:42.195Z,59.95
2022-12-24T20:51:22.865Z,284.08
2022-12-24T20:53:50.127Z,296.95
2022-12-24T20:56:18.180Z,84.10
2022-12-24T20:58:45.267Z,40.08
2022-12-24T21:01:14.678Z,66.32
2022-12-24T21:03:41.121Z,45.40
2022-12-24T21:06:07.758Z,41.30
2022-12-24T21:08:34.251Z,44.72
2022-12-24T21:11:19.137Z,36.70
2022-12-24T21:13:45.507Z,47.70
2022-12-24T21:16:11.942Z,32.78
2022-12-24T21:18:38.342Z,39.05
2022-12-24T21:21:04.797Z,34.80
2022-12-24T21:23:31.232Z,43.83
2022-12-24T21:25:59.437Z,75.10
2022-12-24T21:28:26.958Z,66.45
2022-12-24T21:30:53.442Z,75.18
2022-12-24T21:33:20.022Z,117.15
2022-12-24T21:35:46.440Z,85.95
2022-12-24T21:38:13.039Z,50.80
2022-12-24T21:40:39.533Z,47.55
2022-12-24T21:43:07.341Z,35.67
2022-12-24T21:45:34.060Z,50.60
2022-12-24T21:48:20.453Z,40.08
2022-12-24T21:50:56.962Z,38.50
2022-12-24T21:53:41.992Z,50.20
2022-12-24T21:56:11.874Z,50.85
2022-12-24T21:58:38.284Z,44.33
2022-12-24T22:01:09.003Z,37.53
2022-12-24T22:03:35.882Z,41.67
2022-12-24T22:06:02.431Z,40.53
2022-12-24T22:08:47.437Z,47.00
2022-12-24T22:11:33.125Z,40.83
2022-12-24T22:13:59.827Z,50.67
2022-12-24T22:16:26.757Z,42.25
2022-12-24T22:18:53.378Z,43.30
2022-12-24T22:21:20.183Z,43.03
2022-12-24T22:23:46.639Z,49.17
2022-12-24T22:26:14.690Z,43.28
2022-12-24T22:28:41.074Z,48.53
2022-12-24T22:31:07.561Z,47.45
2022-12-24T22:33:36.086Z,52.85
2022-12-24T22:36:05.793Z,63.03
2022-12-24T22:38:32.193Z,68.88
2022-12-24T22:40:58.579Z,52.88
2022-12-24T22:43:25.006Z,63.00
2022-12-24T22:45:51.658Z,53.95
2022-12-24T22:48:18.030Z,39.40
2022-12-24T22:50:44.410Z,41.92
2022-12-24T22:53:10.769Z,48.80
2022-12-24T22:55:37.235Z,45.47
2022-12-24T22:58:04.207Z,51.65
2022-12-24T23:00:44.873Z,42.72
2022-12-24T23:03:11.900Z,48.05
2022-12-24T23:05:38.775Z,40.17
2022-12-24T23:08:05.834Z,45.22
2022-12-24T23:10:32.237Z,51.22
2022-12-24T23:13:17.132Z,42.70
2022-12-24T23:15:43.555Z,35.50
2022-12-24T23:18:10.534Z,39.35
2022-12-24T23:20:42.241Z,37.63
2022-12-24T23:23:09.017Z,33.55
2022-12-24T23:25:35.624Z,41.13
2022-12-24T23:28:02.009Z,40.75
2022-12-24T23:30:28.509Z,34.30
2022-12-24T23:32:54.904Z,37.67
2022-12-24T23:35:21.329Z,46.67
2022-12-24T23:37:47.728Z,42.28
2022-12-24T23:40:14.283Z,31.77
2022-12-24T23:42:40.804Z,38.53
2022-12-24T23:45:07.620Z,42.63
2022-12-24T23:47:34.006Z,39.47
2022-12-24T23:50:00.471Z,41.13
2022-12-24T23:52:26.853Z,37.17
2022-12-24T23:54:53.216Z,43.03
2022-12-24T23:57:19.653Z,41.42
2022-12-24T23:59:46.028Z,56.55
